Terminal Aerodrome Forecast
Issued by NWS Duluth, MN

Home | Current Version | Previous Version | Text Only | Print | Product List | Glossary On
Versions: 1 2 3 4 5 6 7 8 9 10 11 12 13 14 15 16 17 18 19 20 21 22 23 24 25 26 27 28 29 30 31 32 33 34
000
FTUS43 KDLH 090130 AAA
TAFINL
TAF AMD
KINL 090130Z 0902/0924 32013G20KT 6SM -SN SCT025 OVC045
      TEMPO 0902/0905 3SM -SN BKN035 OVC050
     FM090500 33012KT 6SM -SN SCT025 BKN050
     FM091000 33010KT P6SM SCT050
     FM091400 34008KT P6SM SKC=

USA.gov is the U.S. government's official web portal to all federal, state and local government web resources and services.